Ouray, CO

8:47 PM MDT on October 24, 2014 (GMT -0600)
Ouray | Change Station
CLOSE
Current Station
Personal Weather Station
Location: Ouray, CO
Elevation: 7736 ft
Nearby Weather Stations

Elev 7736 ft 38.03 °N, 107.67 °W | Updated 8 seconds ago

Clear
Clear
47.5 °F
Feels Like 48 °F
N
0.0
Wind Variable Wind from South
Gusts 0.0 mph

Today
High -- | Low -- °F
--% Chance of Precip.
Yesterday
High -- | Low -- °F
Precip. -- in
7:28 AM 6:20 PM
New Moon, 2% visible
Pressure 30.51 in
Visibility 10.0 miles
Clouds Clear
Windchill 48 °F
Dew Point 29 °F
Humidity 48%
Rainfall 0.00 in
Snow Depth Not available.
UV 0 out of 12
Pollen 1.80 out of 12
Air Quality Not available.
Flu Activity Sporadic
METAR KTEX 250235Z AUTO 12005KT 10SM CLR 11/M03 A3051 RMK AO2 T01051030

More Conditions Fewer Conditions

Pressure 30.51 in
Visibility 10.0 miles
Clouds Clear
Windchill 48 °F
Dew Point 29 °F
Humidity 48%
Rainfall 0.00 in
Snow Depth Not available.
UV 0 out of 12
Pollen 1.80 out of 12
Air Quality Not available.
Flu Activity Sporadic
METAR KTEX 250235Z AUTO 12005KT 10SM CLR 11/M03 A3051 RMK AO2 T01051030

More Conditions Fewer Conditions

10-Day Weather Forecast

Almanac

Astronomy

Oct. 24, 2014 Rise Set
Actual Time 7:28 AM MDT 6:20 PM MDT
Civil Twilight 7:01 AM MDT 6:47 PM MDT
Nautical Twilight 6:30 AM MDT 7:18 PM MDT
Astronomical Twilight 6:00 AM MDT 7:49 PM MDT
Moon 8:09 AM MDT (10/24) 7:03 PM MDT (10/24)
Length of Visible Light 11h 46m
Length of Day
10h 52m
Tomorrow will be 2m 15s shorter.
New Moon, 2% of the Moon is Illuminated
Today
New Moon
Oct 30
First Quarter
Nov 6
Full
Nov 14
Last Quarter
Nov 22
New

Today's Extremes

State Highs State Lows

Community

WunderPhotos

Upload Photos

1,764,760 photos uploaded!

Nearby

Snow Depth

Station Depth Elevation
Mineral Creek 0 in 10040 ft
Lizard Head Pass 0 in 10200 ft
Spud Mountain 0 in 10660 ft
Beartown 0 in 11600 ft
El Diente Peak 0 in 10200 ft

Earthquake Activity

City Distance Mag. Time & Date
No recent earthquake activity has been reported nearby.
Minimum magnitude displayed is 2.5.

Coastal Water Temperatures

Place Temperature
No Stations Reporting

Nearby Weather Stations